Strona główna
METAR-TAF:

METAR-TAF

Lotnisko :

Salwador, Salwador

Port lotniczy Comalapa

Szerokość geograficzna: 13-26N, Długość geograficzna: 089-03W, wysokość: 25 m

Aktualna obserwacja pogody

Raport powstał 1 godzina i 6 minut temu, godzina 06:50 UTC
Wiatr 13 kt od północno-północny wschód w porywach dochodzący do 23 kt, zmienny między północno-północny zachód i północny wschód
Temperatura 24°C
Wilgotność 44%
Ciśnienie 1014 hPa
Widzialność 10 km lub więcej
Brak chmur poniżej 1500 m i brak chmur cumulonimbus

METAR: MSLP 160650Z 02013G23KT 340V040 CAVOK 24/11 Q1013 A2993 NOSIG

czas: 01:56 (07:56 UTC)

Prognoza

Raport powstał 4 godziny i 31 minut temu, godzina 03:25 UTC
Prognoza ważna od 16 godzina 06 UTC do 17 godzina 06 UTC
Wiatr 15 kt od północ w porywach dochodzący do 27 kt
Widzialność 10 km lub więcej
Brak chmur poniżej 1500 m i brak chmur cumulonimbus

TAF: MSLP 160325Z 1606/1706 01015G27KT CAVOK TX32/1619Z TN21/1608Z

Obserwacja i prognoza pogody dla ponad 4000 lotnisk (raport METAR i TAF).

Dostępne stacje oznaczono żółtymi i czerwonymi punktami na mapie.

Najedź kursorem aby zobaczyć nazwę stacji.

Kliknij aby zobaczyć obserwacje i prognozy pogody.

Aby zmienić mapę: kliknij na zielony przycisk z czarnym krzyżykiem, aby powiększyć; na zielony przycisk z myślnikiem, aby pomniejszyć; na zielone strzałki, aby przejść do map sąsiednich.


METAR-TAF: